Time;durP1;ratioP1;P1;durP2;ratioP2;P2;SDS_P1;SDS_P2;PMS_P1;PMS_P2;Temp;Humidity;BMP_temperature;BMP_pressure;BME280_temperature;BME280_humidity;BME280_pressure;Samples;Min_cycle;Max_cycle;Signal;HPM_P1;HPM_P2
2021/03/06 00:00:46;;;;;;;;;;;;;;;-6.08;100.00;102355.91;5112961;28;19927;-70
2021/03/06 00:03:16;;;;;;;;;;;;;;;-6.08;100.00;102359.47;5113932;28;19923;-70
2021/03/06 00:05:42;;;;;;;;;;;;;;;-6.04;100.00;102363.03;5113669;28;19974;-70
2021/03/06 00:08:08;;;;;;;;;;;;;;;-6.01;100.00;102365.72;5113759;28;19923;-70
2021/03/06 00:10:34;;;;;;;;;;;;;;;-5.99;100.00;102366.63;5113331;28;19930;-70
2021/03/06 00:13:00;;;;;;;;;;;;;;;-6.00;100.00;102359.56;5113200;28;19968;-71
2021/03/06 00:15:27;;;;;;;;;;;;;;;-6.04;100.00;102360.38;5112970;28;19924;-70
2021/03/06 00:17:53;;;;;;;;;;;;;;;-6.09;100.00;102360.34;5112809;28;19971;-70
2021/03/06 00:20:19;;;;;;;;;;;;;;;-6.05;100.00;102363.91;5112928;28;19982;-71
2021/03/06 00:22:45;;;;;;;;;;;;;;;-6.05;100.00;102361.28;5113019;28;20023;-70
2021/03/06 00:25:13;;;;;;;;;;;;;;;-5.98;100.00;102362.25;5113032;28;20031;-71
2021/03/06 00:27:39;;;;;;;;;;;;;;;-6.00;100.00;102358.69;5112597;28;20007;-70
2021/03/06 00:30:06;;;;;;;;;;;;;;;-6.01;100.00;102357.81;5112925;28;19931;-71
2021/03/06 00:32:31;;;;;;;;;;;;;;;-6.00;100.00;102356.91;5112856;28;19935;-71
2021/03/06 00:34:57;;;;;;;;;;;;;;;-5.93;100.00;102360.53;5112564;28;19923;-70
2021/03/06 00:37:24;;;;;;;;;;;;;;;-5.82;100.00;102366.81;5112262;28;19954;-71
2021/03/06 00:39:50;;;;;;;;;;;;;;;-5.74;100.00;102354.56;5112965;28;19963;-70
2021/03/06 00:42:15;;;;;;;;;;;;;;;-5.73;100.00;102356.34;5112371;28;19934;-71
2021/03/06 00:44:41;;;;;;;;;;;;;;;-5.72;100.00;102360.78;5112385;28;20374;-71
2021/03/06 00:47:07;;;;;;;;;;;;;;;-5.64;100.00;102359.97;5112372;28;19924;-71
2021/03/06 00:49:34;;;;;;;;;;;;;;;-5.43;100.00;102356.69;5111777;28;21485;-70
2021/03/06 00:52:01;;;;;;;;;;;;;;;-5.26;100.00;102348.94;5111336;28;19985;-70
2021/03/06 00:54:27;;;;;;;;;;;;;;;-5.17;100.00;102354.34;5110428;28;20389;-70
2021/03/06 00:56:53;;;;;;;;;;;;;;;-5.17;100.00;102343.75;5112325;28;19931;-71
2021/03/06 00:59:20;;;;;;;;;;;;;;;-5.19;100.00;102344.59;5111118;28;20313;-71
2021/03/06 01:01:48;;;;;;;;;;;;;;;-5.29;100.00;102347.16;5111254;28;19924;-70
2021/03/06 01:04:15;;;;;;;;;;;;;;;-5.39;100.00;102347.91;5111061;28;20317;-70
2021/03/06 01:06:41;;;;;;;;;;;;;;;-5.39;100.00;102353.22;5112104;28;19928;-71
2021/03/06 01:09:07;;;;;;;;;;;;;;;-5.38;100.00;102350.59;5112301;28;19949;-71
2021/03/06 01:11:34;;;;;;;;;;;;;;;-5.31;100.00;102346.25;5111800;28;20525;-71
2021/03/06 01:13:59;;;;;;;;;;;;;;;-5.31;100.00;102346.25;5112089;28;20027;-71
2021/03/06 01:16:25;;;;;;;;;;;;;;;-5.26;100.00;102343.66;5111879;28;19935;-71
2021/03/06 01:18:51;;;;;;;;;;;;;;;-5.24;100.00;102342.81;5112124;28;19924;-71
2021/03/06 01:21:17;;;;;;;;;;;;;;;-5.25;100.00;102337.47;5112126;28;19967;-71
2021/03/06 01:23:43;;;;;;;;;;;;;;;-5.30;100.00;102336.56;5112143;28;19955;-71
2021/03/06 01:26:09;;;;;;;;;;;;;;;-5.39;100.00;102340.84;5111809;28;19924;-71
2021/03/06 01:28:35;;;;;;;;;;;;;;;-5.38;100.00;102344.41;5111580;28;20301;-71
2021/03/06 01:31:01;;;;;;;;;;;;;;;-5.35;100.00;102340.91;5110723;28;19970;-71
2021/03/06 01:33:27;;;;;;;;;;;;;;;-5.38;100.00;102337.34;5111772;28;19931;-71
2021/03/06 01:35:52;;;;;;;;;;;;;;;-5.41;100.00;102336.41;5111701;28;19928;-71
2021/03/06 01:38:18;;;;;;;;;;;;;;;-5.43;100.00;102336.41;5111806;28;19924;-71
2021/03/06 01:40:44;;;;;;;;;;;;;;;-5.46;100.00;102332.84;5111841;28;19924;-71
2021/03/06 01:43:11;;;;;;;;;;;;;;;-5.50;100.00;102323.13;5111858;28;19951;-71
2021/03/06 01:45:38;;;;;;;;;;;;;;;-5.49;100.00;102324.88;5111204;28;19957;-71
2021/03/06 01:48:05;;;;;;;;;;;;;;;-5.55;100.00;102334.50;5111758;28;20361;-71
2021/03/06 01:50:32;;;;;;;;;;;;;;;-5.61;100.00;102325.59;5111909;28;19931;-70
2021/03/06 01:52:58;;;;;;;;;;;;;;;-5.64;100.00;102331.75;5111832;28;19974;-71
2021/03/06 01:55:24;;;;;;;;;;;;;;;-5.66;100.00;102328.22;5111537;28;20016;-70
2021/03/06 01:57:51;;;;;;;;;;;;;;;-5.72;100.00;102321.09;5111485;28;19963;-70
2021/03/06 02:00:18;;;;;;;;;;;;;;;-5.75;100.00;102328.09;5111657;28;20079;-71
2021/03/06 02:02:44;;;;;;;;;;;;;;;-5.61;100.00;102326.50;5111655;28;19931;-70
2021/03/06 02:05:11;;;;;;;;;;;;;;;-5.57;100.00;102317.75;5111154;28;19959;-71
2021/03/06 02:07:37;;;;;;;;;;;;;;;-5.49;100.00;102316.91;5111287;28;20030;-71
2021/03/06 02:10:03;;;;;;;;;;;;;;;-5.49;100.00;102304.59;5111605;28;20435;-71
2021/03/06 02:12:32;;;;;;;;;;;;;;;-5.51;100.00;102313.38;5105188;28;19967;-71
2021/03/06 02:15:02;;;;;;;;;;;;;;;-5.46;100.00;102307.25;5111473;28;20010;-71
2021/03/06 02:17:31;;;;;;;;;;;;;;;-5.44;100.00;102312.56;5111298;28;19980;-71
2021/03/06 02:20:10;;;;;;;;;;;;;;;-5.45;100.00;102311.69;5111453;28;19924;-71
2021/03/06 02:22:47;;;;;;;;;;;;;;;-5.52;100.00;102316.91;5110081;28;20353;-70
2021/03/06 02:25:25;;;;;;;;;;;;;;;-5.53;100.00;102308.09;5111609;28;19924;-70
2021/03/06 02:27:57;;;;;;;;;;;;;;;-5.58;100.00;102309.78;5097928;28;20377;-71
2021/03/06 02:30:26;;;;;;;;;;;;;;;-5.61;100.00;102304.44;5093664;28;19971;-71
2021/03/06 02:32:52;;;;;;;;;;;;;;;-5.49;100.00;102298.38;5094673;28;19959;-70
2021/03/06 02:35:20;;;;;;;;;;;;;;;-5.40;100.00;102298.50;5094523;28;20023;-71
2021/03/06 02:37:48;;;;;;;;;;;;;;;-5.45;100.00;102301.09;5094491;28;19959;-70
2021/03/06 02:40:15;;;;;;;;;;;;;;;-5.42;100.00;102297.59;5094631;28;20007;-70
2021/03/06 02:42:42;;;;;;;;;;;;;;;-5.38;100.00;102294.13;5094208;28;19932;-70
2021/03/06 02:45:09;;;;;;;;;;;;;;;-5.30;100.00;102295.06;5094349;28;20500;-70
2021/03/06 02:47:36;;;;;;;;;;;;;;;-5.12;100.00;102296.97;5100976;28;20448;-70
2021/03/06 02:50:04;;;;;;;;;;;;;;;-5.11;100.00;102288.16;5114835;28;19927;-71
2021/03/06 02:52:29;;;;;;;;;;;;;;;-5.01;100.00;102288.25;5114699;28;20035;-70
2021/03/06 02:54:55;;;;;;;;;;;;;;;-4.97;100.00;102288.31;5114616;28;19932;-71
2021/03/06 02:57:33;;;;;;;;;;;;;;;-4.91;100.00;102292.75;5114631;28;19923;-70
2021/03/06 03:00:04;;;;;;;;;;;;;;;-4.77;100.00;102293.75;5114608;28;20406;-70
2021/03/06 03:02:34;;;;;;;;;;;;;;;-4.72;100.00;102293.78;5114274;28;20384;-71
2021/03/06 03:05:07;;;;;;;;;;;;;;;-4.76;100.00;102292.00;5114497;28;20645;-70
2021/03/06 03:07:35;;;;;;;;;;;;;;;-4.83;100.00;102290.19;5114205;28;19930;-69
2021/03/06 03:10:04;;;;;;;;;;;;;;;-4.91;100.00;102283.03;5114521;28;19964;-69
2021/03/06 03:12:32;;;;;;;;;;;;;;;-5.01;100.00;102286.50;5114341;28;20014;-69
2021/03/06 03:15:02;;;;;;;;;;;;;;;-5.11;100.00;102288.16;5114236;28;20010;-70
2021/03/06 03:17:32;;;;;;;;;;;;;;;-5.25;100.00;102293.34;5114012;28;20030;-69
2021/03/06 03:19:59;;;;;;;;;;;;;;;-5.38;100.00;102297.63;5114076;28;19924;-69
2021/03/06 03:22:28;;;;;;;;;;;;;;;-5.44;100.00;102301.97;5114049;28;20022;-70
2021/03/06 03:24:55;;;;;;;;;;;;;;;-5.52;100.00;102314.25;5114138;28;20033;-70
2021/03/06 03:27:21;;;;;;;;;;;;;;;-5.59;100.00;102306.22;5113970;28;19978;-71
2021/03/06 03:29:48;;;;;;;;;;;;;;;-5.67;100.00;102313.19;5113972;28;20026;-69
2021/03/06 03:32:14;;;;;;;;;;;;;;;-5.70;100.00;102310.53;5113954;28;20022;-70
2021/03/06 03:34:40;;;;;;;;;;;;;;;-5.79;100.00;102316.59;5112811;28;20325;-70
2021/03/06 03:37:10;;;;;;;;;;;;;;;-5.86;100.00;102314.75;5113460;28;19934;-69
2021/03/06 03:39:37;;;;;;;;;;;;;;;-5.96;100.00;102318.13;5113533;28;20053;-70
2021/03/06 03:42:04;;;;;;;;;;;;;;;-5.96;100.00;102313.75;5113722;28;20002;-70
2021/03/06 03:44:30;;;;;;;;;;;;;;;-5.95;100.00;102319.91;5113895;28;19958;-69
2021/03/06 03:46:56;;;;;;;;;;;;;;;-5.87;100.00;102318.25;5113538;27;19951;-70
2021/03/06 03:49:22;;;;;;;;;;;;;;;-5.90;100.00;102321.75;5113687;28;20373;-71
2021/03/06 03:51:48;;;;;;;;;;;;;;;-5.85;100.00;102323.56;5113604;28;19958;-70
2021/03/06 03:54:15;;;;;;;;;;;;;;;-5.83;100.00;102320.06;5113549;28;20014;-72
2021/03/06 03:56:42;;;;;;;;;;;;;;;-5.83;100.00;102328.00;5113338;28;19923;-70
2021/03/06 03:59:09;;;;;;;;;;;;;;;-5.92;100.00;102326.16;5113388;28;19930;-70
2021/03/06 04:01:38;;;;;;;;;;;;;;;-5.95;100.00;102333.16;5113358;28;19928;-70
2021/03/06 04:04:05;;;;;;;;;;;;;;;-5.97;100.00;102324.28;5113390;28;20420;-70
2021/03/06 04:06:31;;;;;;;;;;;;;;;-5.98;100.00;102334.03;5113104;27;19999;-70
2021/03/06 04:08:56;;;;;;;;;;;;;;;-6.01;100.00;102326.06;5113271;28;19924;-70
2021/03/06 04:11:22;;;;;;;;;;;;;;;-6.05;100.00;102329.53;5113252;28;19930;-70
2021/03/06 04:13:49;;;;;;;;;;;;;;;-6.09;100.00;102333.00;5111971;28;19924;-70
2021/03/06 04:16:15;;;;;;;;;;;;;;;-6.06;100.00;102325.13;5111648;28;19928;-70
2021/03/06 04:18:41;;;;;;;;;;;;;;;-6.03;100.00;102327.78;5112824;28;20022;-71
2021/03/06 04:21:07;;;;;;;;;;;;;;;-6.04;100.00;102330.41;5113032;28;19992;-70
2021/03/06 04:23:32;;;;;;;;;;;;;;;-6.07;100.00;102331.25;5112924;28;19946;-70
2021/03/06 04:25:58;;;;;;;;;;;;;;;-6.04;100.00;102331.28;5112746;28;19947;-70
2021/03/06 04:28:24;;;;;;;;;;;;;;;-5.99;100.00;102328.72;5112918;28;19930;-70
2021/03/06 04:30:51;;;;;;;;;;;;;;;-5.97;100.00;102332.22;5113151;28;19974;-70
2021/03/06 04:33:17;;;;;;;;;;;;;;;-5.90;100.00;102332.34;5112807;28;20008;-70
2021/03/06 04:35:43;;;;;;;;;;;;;;;-5.86;100.00;102327.97;5112243;28;19928;-70
2021/03/06 04:38:08;;;;;;;;;;;;;;;-5.83;100.00;102341.22;5112577;28;20377;-70
2021/03/06 04:40:34;;;;;;;;;;;;;;;-5.82;100.00;102335.06;5112702;28;19925;-70
2021/03/06 04:43:00;;;;;;;;;;;;;;;-5.85;100.00;102329.75;5112529;28;20330;-70
2021/03/06 04:45:26;;;;;;;;;;;;;;;-5.86;100.00;102333.25;5112459;28;19935;-70
2021/03/06 04:47:55;;;;;;;;;;;;;;;-5.82;100.00;102331.56;5110705;28;19923;-70
2021/03/06 04:50:20;;;;;;;;;;;;;;;-5.63;100.00;102336.19;5112640;28;20344;-70
2021/03/06 04:52:46;;;;;;;;;;;;;;;-5.61;100.00;102337.09;5112400;28;19924;-70
2021/03/06 04:55:12;;;;;;;;;;;;;;;-5.62;100.00;102337.97;5112049;28;19923;-70
2021/03/06 04:57:38;;;;;;;;;;;;;;;-5.62;100.00;102345.91;5111108;28;19924;-70
2021/03/06 05:00:04;;;;;;;;;;;;;;;-5.60;100.00;102346.81;5112322;28;20359;-70
2021/03/06 05:02:30;;;;;;;;;;;;;;;-5.57;100.00;102338.03;5112266;28;19932;-70
2021/03/06 05:04:58;;;;;;;;;;;;;;;-5.50;100.00;102347.81;5112277;28;20312;-70
2021/03/06 05:07:24;;;;;;;;;;;;;;;-5.49;100.00;102346.03;5111944;28;19931;-70
2021/03/06 05:09:50;;;;;;;;;;;;;;;-5.47;100.00;102339.00;5111906;28;19923;-70
2021/03/06 05:12:16;;;;;;;;;;;;;;;-5.47;100.00;102339.00;5112167;28;20298;-70
2021/03/06 05:14:41;;;;;;;;;;;;;;;-5.53;100.00;102349.53;5112114;28;19977;-70
2021/03/06 05:17:07;;;;;;;;;;;;;;;-5.62;100.00;102345.91;5112000;28;19923;-70
2021/03/06 05:19:33;;;;;;;;;;;;;;;-5.68;100.00;102353.75;5111323;28;19928;-70
2021/03/06 05:22:00;;;;;;;;;;;;;;;-5.75;100.00;102355.44;5106833;28;19931;-70
2021/03/06 05:24:26;;;;;;;;;;;;;;;-5.80;100.00;102353.59;5101885;28;19962;-70
2021/03/06 05:27:01;;;;;;;;;;;;;;;-5.84;100.00;102354.44;5108001;28;19931;-70
2021/03/06 05:29:27;;;;;;;;;;;;;;;-5.80;100.00;102351.88;5100627;28;19928;-70
2021/03/06 05:31:53;;;;;;;;;;;;;;;-5.74;100.00;102351.06;5111757;28;19932;-70
2021/03/06 05:34:18;;;;;;;;;;;;;;;-5.64;100.00;102347.63;5111833;28;19997;-70
2021/03/06 05:36:44;;;;;;;;;;;;;;;-5.53;100.00;102352.16;5111613;28;20404;-70
2021/03/06 05:39:11;;;;;;;;;;;;;;;-5.34;100.00;102350.59;5111816;28;19946;-70
2021/03/06 05:41:37;;;;;;;;;;;;;;;-5.21;100.00;102350.78;5111414;28;20401;-71
2021/03/06 05:44:03;;;;;;;;;;;;;;;-5.07;100.00;102345.59;5111745;28;20022;-70
2021/03/06 05:46:29;;;;;;;;;;;;;;;-4.92;100.00;102346.63;5111153;28;20019;-70
2021/03/06 05:48:55;;;;;;;;;;;;;;;-4.77;100.00;102341.47;5106187;28;20352;-70
2021/03/06 05:51:22;;;;;;;;;;;;;;;-4.58;100.00;102347.78;5111541;28;19996;-70
2021/03/06 05:53:51;;;;;;;;;;;;;;;-4.42;100.00;102351.44;5111719;28;20060;-70
2021/03/06 05:56:18;;;;;;;;;;;;;;;-4.32;100.00;102339.13;5091278;28;19928;-71
2021/03/06 05:58:46;;;;;;;;;;;;;;;-4.23;100.00;102343.59;5098187;28;20397;-70
2021/03/06 06:01:13;;;;;;;;;;;;;;;-4.22;100.00;102332.13;5115823;28;20018;-71
2021/03/06 06:03:40;;;;;;;;;;;;;;;-4.24;100.00;102331.22;5103787;28;20014;-70
2021/03/06 06:06:06;;;;;;;;;;;;;;;-4.25;100.00;102333.00;5113929;28;19927;-70
2021/03/06 06:08:34;;;;;;;;;;;;;;;-4.25;100.00;102333.00;5110059;28;19924;-70
2021/03/06 06:11:00;;;;;;;;;;;;;;;-4.18;100.00;102335.66;5095171;28;19924;-70
2021/03/06 06:13:26;;;;;;;;;;;;;;;-4.12;100.00;102338.34;5094930;28;20019;-70
2021/03/06 06:15:53;;;;;;;;;;;;;;;-4.04;100.00;102331.31;5106199;28;20011;-70
2021/03/06 06:18:18;;;;;;;;;;;;;;;-3.95;100.00;102339.34;5115418;28;19924;-70
2021/03/06 06:20:44;;;;;;;;;;;;;;;-3.85;100.00;102342.03;5105363;28;20009;-70
2021/03/06 06:23:11;;;;;;;;;;;;;;;-3.75;100.00;102346.50;5094665;28;20648;-70
2021/03/06 06:25:37;;;;;;;;;;;;;;;-3.66;100.00;102351.84;5097163;28;20397;-70
2021/03/06 06:28:03;;;;;;;;;;;;;;;-3.55;100.00;102344.81;5094884;28;19976;-70
2021/03/06 06:30:30;;;;;;;;;;;;;;;-3.48;100.00;102345.69;5101591;28;19928;-70
2021/03/06 06:32:56;;;;;;;;;;;;;;;-3.41;100.00;102354.56;5107857;28;19969;-70
2021/03/06 06:35:22;;;;;;;;;;;;;;;-3.39;100.00;102361.66;5114613;28;19928;-70
2021/03/06 06:37:55;;;;;;;;;;;;;;;-3.31;100.00;102356.38;5114638;28;19938;-70
2021/03/06 06:40:22;;;;;;;;;;;;;;;-3.22;100.00;102355.50;5113477;28;20385;-70
2021/03/06 06:42:48;;;;;;;;;;;;;;;-3.08;100.00;102352.88;5111232;28;19924;-70
2021/03/06 06:45:16;;;;;;;;;;;;;;;-2.66;100.00;102358.22;5113071;28;21538;-71
2021/03/06 06:47:43;;;;;;;;;;;;;;;-2.03;100.00;102366.16;5101440;28;19924;-71
2021/03/06 06:50:10;;;;;;;;;;;;;;;-1.29;100.00;102364.94;5094189;28;20448;-71
2021/03/06 06:52:37;;;;;;;;;;;;;;;-0.50;100.00;102362.59;5110890;28;20014;-71
2021/03/06 06:55:03;;;;;;;;;;;;;;;-0.19;100.00;102365.88;5109311;28;19923;-71
2021/03/06 06:57:29;;;;;;;;;;;;;;;-0.12;100.00;102365.78;5113016;28;20014;-71
2021/03/06 06:59:56;;;;;;;;;;;;;;;-0.03;100.00;102357.69;5114436;28;19931;-71
2021/03/06 07:02:23;;;;;;;;;;;;;;;0.16;100.00;102361.03;5095576;28;19955;-73
2021/03/06 07:04:50;;;;;;;;;;;;;;;0.48;100.00;102371.34;5093862;28;20347;-71
2021/03/06 07:07:17;;;;;;;;;;;;;;;0.70;100.00;102371.06;5093813;28;20018;-71
2021/03/06 07:10:07;;;;;;;;;;;;;;;1.12;100.00;102360.63;5107307;28;19934;-72
2021/03/06 07:12:34;;;;;;;;;;;;;;;1.52;100.00;102359.06;5078199;28;19982;-72
2021/03/06 07:15:01;;;;;;;;;;;;;;;1.34;100.00;102361.16;5110234;28;19951;-71
2021/03/06 07:17:37;;;;;;;;;;;;;;;1.58;100.00;102358.13;5114071;28;19981;-72
2021/03/06 07:20:04;;;;;;;;;;;;;;;1.41;100.00;102353.03;5100187;28;19986;-71
2021/03/06 07:22:31;;;;;;;;;;;;;;;1.55;100.00;102361.72;5106384;28;19923;-71
2021/03/06 07:24:57;;;;;;;;;;;;;;;1.84;100.00;102349.59;5106288;28;20018;-73
2021/03/06 07:27:23;;;;;;;;;;;;;;;1.81;100.00;102349.66;5095062;28;19932;-72
2021/03/06 07:29:49;;;;;;;;;;;;;;;1.85;100.00;102354.03;5108815;28;19966;-72
2021/03/06 07:32:15;;;;;;;;;;;;;;;2.04;100.00;102351.00;5112449;28;19924;-71
2021/03/06 07:34:41;;;;;;;;;;;;;;;1.97;100.00;102352.94;5112809;28;20461;-71
2021/03/06 07:37:08;;;;;;;;;;;;;;;2.66;100.00;102345.25;5111195;28;20563;-71
2021/03/06 07:39:38;;;;;;;;;;;;;;;2.78;100.00;102331.56;5093479;28;20026;-71
2021/03/06 07:42:08;;;;;;;;;;;;;;;2.56;100.00;102343.69;5093532;28;19928;-70
2021/03/06 07:44:35;;;;;;;;;;;;;;;2.58;100.00;102332.03;5113753;28;19978;-69
2021/03/06 07:47:00;;;;;;;;;;;;;;;3.05;100.00;102338.97;5111643;28;20015;-70
2021/03/06 07:49:32;;;;;;;;;;;;;;;3.41;100.00;102339.00;5099667;28;19951;-70
2021/03/06 07:52:01;;;;;;;;;;;;;;;3.27;100.00;102331.31;5112337;28;19962;-70
2021/03/06 07:54:27;;;;;;;;;;;;;;;3.21;100.00;102326.06;5113404;28;20426;-71
2021/03/06 07:56:54;;;;;;;;;;;;;;;3.65;100.00;102332.13;5113443;28;20026;-70
2021/03/06 07:59:35;;;;;;;;;;;;;;;4.06;99.67;102327.41;5110909;28;19923;-70
2021/03/06 08:02:27;;;;;;;;;;;;;;;4.19;97.43;102322.56;5102378;28;20018;-71
2021/03/06 08:04:53;;;;;;;;;;;;;;;4.19;97.69;102328.81;5103770;28;20356;-70
2021/03/06 08:07:19;;;;;;;;;;;;;;;4.35;96.01;102320.31;5094931;28;19931;-70
2021/03/06 08:09:59;;;;;;;;;;;;;;;4.37;94.81;102329.22;5098046;28;20294;-70
2021/03/06 08:12:29;;;;;;;;;;;;;;;4.34;95.71;102340.03;5092353;28;20776;-70
2021/03/06 08:14:55;;;;;;;;;;;;;;;4.48;94.35;102342.34;5092462;28;20015;-71
2021/03/06 08:17:31;;;;;;;;;;;;;;;4.36;96.01;102347.16;5092279;28;19924;-71
2021/03/06 08:20:00;;;;;;;;;;;;;;;4.73;94.67;102336.19;5092680;28;19934;-74
2021/03/06 08:22:26;;;;;;;;;;;;;;;5.46;92.93;102345.53;5091835;28;20412;-70
2021/03/06 08:24:52;;;;;;;;;;;;;;;5.38;89.46;102345.78;5091246;28;19924;-70
2021/03/06 08:27:19;;;;;;;;;;;;;;;5.38;87.92;102340.38;5092239;28;19931;-70
2021/03/06 08:29:47;;;;;;;;;;;;;;;5.05;89.00;102335.22;5091406;28;19924;-70
2021/03/06 08:32:13;;;;;;;;;;;;;;;5.29;89.56;102338.00;5090877;28;20365;-70
2021/03/06 08:34:41;;;;;;;;;;;;;;;4.81;90.61;102337.75;5091905;28;19970;-70
2021/03/06 08:37:37;;;;;;;;;;;;;;;4.71;92.42;102327.31;5104127;28;19934;-70
2021/03/06 08:40:04;;;;;;;;;;;;;;;4.87;91.18;102333.97;5049530;28;19929;-69
2021/03/06 08:42:32;;;;;;;;;;;;;;;5.25;91.88;102331.84;5081911;28;20014;-70
2021/03/06 08:44:59;;;;;;;;;;;;;;;5.13;91.24;102330.44;5095883;28;20296;-71
2021/03/06 08:47:26;;;;;;;;;;;;;;;5.24;91.24;102334.56;5112114;28;20014;-70
2021/03/06 08:49:53;;;;;;;;;;;;;;;5.30;90.20;102329.88;5112427;28;19969;-70
2021/03/06 08:52:19;;;;;;;;;;;;;;;5.39;90.95;102335.91;5111213;28;19943;-70
2021/03/06 08:54:45;;;;;;;;;;;;;;;5.53;91.48;102334.50;5111607;28;19923;-70
2021/03/06 08:57:30;;;;;;;;;;;;;;;5.46;89.17;102332.91;5111575;28;19924;-70
2021/03/06 08:59:56;;;;;;;;;;;;;;;6.00;86.95;102327.50;5112107;28;19970;-70
2021/03/06 09:02:26;;;;;;;;;;;;;;;6.35;82.52;102341.50;5110249;28;20345;-70
2021/03/06 09:04:59;;;;;;;;;;;;;;;6.66;79.34;102337.63;5111955;28;20011;-70
2021/03/06 09:07:26;;;;;;;;;;;;;;;6.20;78.45;102335.72;5111690;28;19931;-70
2021/03/06 09:09:51;;;;;;;;;;;;;;;6.72;78.04;102336.50;5112243;28;20364;-70
2021/03/06 09:12:17;;;;;;;;;;;;;;;7.40;73.38;102333.72;5111956;28;19936;-70
2021/03/06 09:14:43;;;;;;;;;;;;;;;7.82;66.59;102330.13;5111497;28;19924;-70
2021/03/06 09:17:10;;;;;;;;;;;;;;;7.95;65.64;102325.03;5110793;28;19930;-72
2021/03/06 09:19:36;;;;;;;;;;;;;;;7.38;66.72;102323.88;5111739;28;20011;-71
2021/03/06 09:22:03;;;;;;;;;;;;;;;7.10;70.00;102334.94;5110663;28;19924;-71
2021/03/06 09:24:42;;;;;;;;;;;;;;;7.25;71.61;102346.06;5111524;28;20026;-71
2021/03/06 09:27:08;;;;;;;;;;;;;;;7.55;70.09;102335.81;5111604;28;20353;-71
2021/03/06 09:29:33;;;;;;;;;;;;;;;7.98;68.19;102343.84;5111661;28;19927;-71
2021/03/06 09:31:59;;;;;;;;;;;;;;;7.38;65.83;102328.41;5110495;28;19973;-71
2021/03/06 09:34:28;;;;;;;;;;;;;;;7.59;67.88;102336.53;5111767;28;19947;-71
2021/03/06 09:36:53;;;;;;;;;;;;;;;7.99;65.21;102335.66;5111678;28;19924;-71
2021/03/06 09:39:22;;;;;;;;;;;;;;;7.86;66.99;102331.75;5111572;28;19924;-71
2021/03/06 09:41:47;;;;;;;;;;;;;;;8.33;67.29;102338.66;5111575;28;19967;-71
2021/03/06 09:44:14;;;;;;;;;;;;;;;8.17;67.16;102330.38;5111605;28;19992;-71
2021/03/06 09:46:40;;;;;;;;;;;;;;;7.90;68.51;102335.19;5111476;28;19924;-71
2021/03/06 09:49:07;;;;;;;;;;;;;;;7.31;72.71;102337.69;5111866;28;19924;-71
2021/03/06 09:51:40;;;;;;;;;;;;;;;6.63;80.47;102333.22;5111668;28;19931;-71
2021/03/06 09:54:07;;;;;;;;;;;;;;;5.60;87.16;102326.19;5111197;28;19967;-70
2021/03/06 09:56:33;;;;;;;;;;;;;;;4.96;96.66;102330.97;5111529;28;19924;-71
2021/03/06 09:59:00;;;;;;;;;;;;;;;4.70;100.00;102337.19;5111700;28;20023;-71
2021/03/06 10:01:26;;;;;;;;;;;;;;;4.33;100.00;102323.03;5111457;28;19924;-72
2021/03/06 10:03:52;;;;;;;;;;;;;;;4.26;100.00;102340.28;5111631;28;19927;-73
2021/03/06 10:06:20;;;;;;;;;;;;;;;4.00;100.00;102325.78;5111223;28;20461;-71
2021/03/06 10:08:48;;;;;;;;;;;;;;;3.90;100.00;102331.44;5111485;28;20034;-71
2021/03/06 10:11:14;;;;;;;;;;;;;;;4.07;100.00;102326.47;5111418;28;19970;-72
2021/03/06 10:13:42;;;;;;;;;;;;;;;4.05;100.00;102338.19;5110140;28;20076;-71
2021/03/06 10:16:08;;;;;;;;;;;;;;;4.11;100.00;102333.53;5092859;28;19924;-71
2021/03/06 10:18:36;;;;;;;;;;;;;;;4.06;100.00;102330.09;5111385;28;19966;-71
2021/03/06 10:21:08;;;;;;;;;;;;;;;3.98;100.00;102326.75;5111475;28;20033;-71
2021/03/06 10:23:34;;;;;;;;;;;;;;;3.83;100.00;102328.06;5111436;28;20030;-71
2021/03/06 10:26:27;;;;;;;;;;;;;;;3.70;100.00;102324.81;5111103;28;20015;-72
2021/03/06 10:28:55;;;;;;;;;;;;;;;3.47;100.00;102330.78;5074854;28;20023;-69
2021/03/06 10:31:24;;;;;;;;;;;;;;;3.35;100.00;102326.63;5110938;28;19968;-70
2021/03/06 10:33:50;;;;;;;;;;;;;;;3.39;100.00;102317.56;5111248;28;19970;-70
2021/03/06 10:36:16;;;;;;;;;;;;;;;3.36;100.00;102320.34;5110647;28;19924;-70
2021/03/06 10:38:41;;;;;;;;;;;;;;;3.33;100.00;102320.41;5111034;28;20377;-70
2021/03/06 10:41:14;;;;;;;;;;;;;;;3.28;100.00;102323.19;5110813;28;19935;-70
2021/03/06 10:43:41;;;;;;;;;;;;;;;3.46;100.00;102319.19;5110936;28;20436;-70
2021/03/06 10:46:15;;;;;;;;;;;;;;;3.40;100.00;102322.00;5114086;28;20018;-70
2021/03/06 10:48:41;;;;;;;;;;;;;;;3.43;100.00;102327.28;5114824;28;19923;-71
2021/03/06 10:51:08;;;;;;;;;;;;;;;3.20;100.00;102327.03;5114168;28;19936;-70
2021/03/06 10:53:33;;;;;;;;;;;;;;;3.00;100.00;102341.78;5114682;28;20456;-70
2021/03/06 10:56:01;;;;;;;;;;;;;;;2.53;100.00;102349.13;5114255;28;19931;-70
2021/03/06 10:58:43;;;;;;;;;;;;;;;2.16;100.00;102348.97;5114657;28;20023;-70
2021/03/06 11:01:09;;;;;;;;;;;;;;;2.05;100.00;102352.78;5114668;28;20010;-70
2021/03/06 11:03:43;;;;;;;;;;;;;;;1.96;100.00;102354.69;5114626;28;20017;-71
2021/03/06 11:06:09;;;;;;;;;;;;;;;2.01;100.00;102357.31;5114489;28;19946;-71
2021/03/06 11:08:35;;;;;;;;;;;;;;;2.00;100.00;102360.88;5114320;28;19955;-70
2021/03/06 11:11:00;;;;;;;;;;;;;;;1.94;100.00;102356.53;5114595;28;19927;-72
2021/03/06 11:13:37;;;;;;;;;;;;;;;1.96;100.00;102360.06;5114315;28;20513;-71
2021/03/06 11:16:03;;;;;;;;;;;;;;;1.95;100.00;102362.78;5114082;28;19924;-71
2021/03/06 11:18:28;;;;;;;;;;;;;;;1.96;100.00;102361.88;5109316;27;20032;-71
2021/03/06 11:20:55;;;;;;;;;;;;;;;1.84;100.00;102355.84;5097168;28;19931;-70
2021/03/06 11:23:21;;;;;;;;;;;;;;;1.98;100.00;102357.38;5096400;28;19964;-71
2021/03/06 11:25:47;;;;;;;;;;;;;;;2.15;100.00;102360.59;5106497;28;19939;-70
2021/03/06 11:28:13;;;;;;;;;;;;;;;2.21;100.00;102346.19;5103021;28;19924;-69
2021/03/06 11:30:40;;;;;;;;;;;;;;;2.34;100.00;102345.03;5113766;28;20379;-72
2021/03/06 11:33:07;;;;;;;;;;;;;;;2.34;100.00;102350.38;5101426;28;20401;-72
2021/03/06 11:35:33;;;;;;;;;;;;;;;2.13;100.00;102346.34;5093673;28;19924;-71
2021/03/06 11:38:00;;;;;;;;;;;;;;;2.26;100.00;102348.75;5106614;28;20399;-71
2021/03/06 11:40:27;;;;;;;;;;;;;;;2.17;100.00;102353.41;5113034;28;19924;-72
2021/03/06 11:42:53;;;;;;;;;;;;;;;2.07;100.00;102337.53;5112247;28;20368;-72
2021/03/06 11:45:19;;;;;;;;;;;;;;;1.93;100.00;102337.84;5110506;28;19928;-72
2021/03/06 11:47:46;;;;;;;;;;;;;;;1.93;100.00;102329.78;5111820;28;19970;-72
2021/03/06 11:50:12;;;;;;;;;;;;;;;1.85;100.00;102324.56;5094979;28;19925;-71
2021/03/06 11:52:38;;;;;;;;;;;;;;;1.84;100.00;102322.81;5100649;28;20051;-71
2021/03/06 11:55:07;;;;;;;;;;;;;;;1.96;100.00;102317.19;5105521;28;20365;-71
2021/03/06 11:57:33;;;;;;;;;;;;;;;1.97;100.00;102321.66;5112146;28;20011;-71
2021/03/06 11:59:59;;;;;;;;;;;;;;;2.03;100.00;102327.81;5093717;28;20011;-71
2021/03/06 12:02:25;;;;;;;;;;;;;;;2.13;100.00;102324.03;5093288;28;19931;-71
2021/03/06 12:04:50;;;;;;;;;;;;;;;2.03;100.00;102317.97;5093196;28;19924;-71
2021/03/06 12:07:16;;;;;;;;;;;;;;;2.04;100.00;102313.50;5092731;28;20023;-71
2021/03/06 12:09:42;;;;;;;;;;;;;;;2.04;100.00;102318.88;5107061;28;19924;-71
2021/03/06 12:12:09;;;;;;;;;;;;;;;2.01;100.00;102311.78;5112464;28;20415;-71
2021/03/06 12:14:35;;;;;;;;;;;;;;;2.09;100.00;102315.16;5096488;28;19924;-71
2021/03/06 12:17:01;;;;;;;;;;;;;;;2.00;100.00;102318.94;5095221;28;20019;-71
2021/03/06 12:19:27;;;;;;;;;;;;;;;2.01;100.00;102319.81;5106110;28;19982;-72
2021/03/06 12:21:52;;;;;;;;;;;;;;;1.86;100.00;102325.44;5111612;28;20377;-71
2021/03/06 12:24:18;;;;;;;;;;;;;;;1.85;100.00;102311.19;5092226;28;19924;-71
2021/03/06 12:26:44;;;;;;;;;;;;;;;1.79;100.00;102297.91;5092108;28;19931;-71
2021/03/06 12:29:11;;;;;;;;;;;;;;;2.05;100.00;102297.41;5100986;28;19931;-71
2021/03/06 12:31:36;;;;;;;;;;;;;;;2.19;100.00;102302.44;5109175;28;19923;-71
2021/03/06 12:34:04;;;;;;;;;;;;;;;2.40;100.00;102301.13;5111823;28;19924;-71